Amanab Airport


Codes: AMU/AMU
Name: Amanab Airport
City: Amanab
Country: Papua New Guinea
Elevation: 1307 ft.

Photos at Amanab Airport


   Photos courtesy of SpottingLog. You can add your own sightings and photos by signing up for a free trial today.



No photos found.

Weather at Amanab Airport


Time (UTC)DescriptionTempratureWindCloud coverageVisibilityPressureHumidity
23-May-2024 21:00Overcast Clouds22°C2 mph, W100%10000m1010hPa99%
24-May-2024 00:00Light Rain23°C2 mph, SW100%10000m1011hPa97%
24-May-2024 03:00Light Rain30°C2 mph, SE100%10000m1008hPa62%
24-May-2024 06:00Overcast Clouds30°C4 mph, E92%10000m1006hPa63%
24-May-2024 09:00Light Rain23°C0 mph, E85%10000m1008hPa97%
24-May-2024 12:00Light Rain23°C0 mph, NE90%10000m1011hPa99%
24-May-2024 15:00Light Rain22°C0 mph, E92%10000m1010hPa99%
24-May-2024 18:00Light Rain22°C2 mph, E84%10000m1009hPa100%
24-May-2024 21:00Broken Clouds22°C0 mph, SE63%154m1010hPa100%
25-May-2024 00:00Broken Clouds25°C2 mph, SE73%10000m1011hPa85%
25-May-2024 03:00Overcast Clouds30°C4 mph, E94%10000m1008hPa61%
25-May-2024 06:00Broken Clouds30°C4 mph, SE84%10000m1006hPa59%
25-May-2024 09:00Light Rain24°C2 mph, NE93%10000m1008hPa90%
25-May-2024 12:00Light Rain22°C0 mph, N91%10000m1011hPa97%
25-May-2024 15:00Light Rain22°C0 mph, E99%10000m1010hPa99%
25-May-2024 18:00Light Rain21°C2 mph, SE99%10000m1010hPa100%
25-May-2024 21:00Overcast Clouds21°C0 mph, E85%10000m1011hPa100%
26-May-2024 00:00Overcast Clouds25°C2 mph, SE85%10000m1012hPa85%
26-May-2024 03:00Scattered Clouds30°C4 mph, E45%10000m1008hPa57%
26-May-2024 06:00Light Rain28°C4 mph, NE61%10000m1007hPa78%
26-May-2024 09:00Light Rain23°C2 mph, NE100%10000m1009hPa98%
26-May-2024 12:00Moderate Rain22°C0 mph, NW100%5175m1011hPa99%
26-May-2024 15:00Light Rain21°C0 mph, SW98%10000m1010hPa99%
26-May-2024 18:00Overcast Clouds21°C0 mph, S88%10000m1009hPa99%
26-May-2024 21:00Overcast Clouds21°C0 mph, NE92%10000m1011hPa100%
27-May-2024 00:00Overcast Clouds25°C2 mph, E92%10000m1011hPa84%
27-May-2024 03:00Scattered Clouds30°C4 mph, E50%10000m1008hPa59%
27-May-2024 06:00Scattered Clouds30°C4 mph, E38%10000m1006hPa53%
27-May-2024 09:00Broken Clouds25°C0 mph, N64%10000m1008hPa79%
27-May-2024 12:00Light Rain23°C2 mph, N82%10000m1010hPa89%
27-May-2024 15:00Light Rain22°C0 mph, SW100%10000m1009hPa95%
27-May-2024 18:00Overcast Clouds21°C0 mph, E86%10000m1008hPa99%
27-May-2024 21:00Overcast Clouds22°C0 mph, E93%10000m1010hPa99%
28-May-2024 00:00Overcast Clouds27°C4 mph, SE94%10000m1010hPa72%
28-May-2024 03:00Scattered Clouds31°C4 mph, E49%10000m1008hPa54%
28-May-2024 06:00Scattered Clouds31°C4 mph, E47%10000m1006hPa49%
28-May-2024 09:00Scattered Clouds25°C2 mph, E31%10000m1008hPa82%
28-May-2024 12:00Broken Clouds23°C2 mph, NW52%10000m1010hPa91%
28-May-2024 15:00Scattered Clouds22°C0 mph, NW33%10000m1009hPa94%
28-May-2024 18:00Broken Clouds22°C0 mph, E64%10000m1009hPa97%